createdAt,value
2018-03-03T00:01:06.528Z,98963.30
2018-03-03T00:03:36.233Z,98960.24
2018-03-03T00:06:06.816Z,98960.36
2018-03-03T00:08:38.041Z,98966.05
2018-03-03T00:11:08.044Z,98962.84
2018-03-03T00:13:37.656Z,98959.32
2018-03-03T00:16:07.813Z,98956.30
2018-03-03T00:18:37.521Z,98949.06
2018-03-03T00:21:07.262Z,98942.53
2018-03-03T00:23:37.370Z,98931.73
2018-03-03T00:26:06.991Z,98929.27
2018-03-03T00:28:36.863Z,98925.04
2018-03-03T00:31:07.375Z,98926.31
2018-03-03T00:33:37.383Z,98927.37
2018-03-03T00:36:07.047Z,98937.59
2018-03-03T00:38:37.200Z,98931.66
2018-03-03T00:41:06.918Z,98935.52
2018-03-03T00:43:36.537Z,98927.72
2018-03-03T00:46:08.568Z,98921.69
2018-03-03T00:48:38.169Z,98921.69
2018-03-03T00:51:08.392Z,98926.00
2018-03-03T00:53:39.600Z,98935.10
2018-03-03T00:56:09.403Z,98946.16
2018-03-03T00:58:38.623Z,98939.09
2018-03-03T01:01:08.248Z,98937.08
2018-03-03T01:06:14.607Z,98925.36
2018-03-03T01:08:44.140Z,98920.88
2018-03-03T01:11:13.384Z,98926.84
2018-03-03T01:13:42.639Z,98924.70
2018-03-03T01:16:12.379Z,98923.23
2018-03-03T01:18:41.669Z,98929.27
2018-03-03T01:21:10.970Z,98934.77
2018-03-03T01:23:41.684Z,98930.23
2018-03-03T01:26:11.549Z,98934.36
2018-03-03T01:28:40.781Z,98928.66
2018-03-03T01:31:10.523Z,98929.41
2018-03-03T01:33:40.099Z,98923.28
2018-03-03T01:36:09.390Z,98909.18
2018-03-03T01:38:38.946Z,98907.02
2018-03-03T01:41:08.190Z,98897.51
2018-03-03T01:43:37.428Z,98897.11
2018-03-03T01:46:07.053Z,98897.26
2018-03-03T01:48:36.452Z,98900.72
2018-03-03T01:51:06.711Z,98909.54
2018-03-03T01:53:36.384Z,98908.12
2018-03-03T01:56:07.576Z,98907.20
2018-03-03T01:58:37.699Z,98913.50
2018-03-03T02:01:09.145Z,98911.39
2018-03-03T02:03:40.526Z,98907.88
2018-03-03T02:06:09.845Z,98908.67
2018-03-03T02:08:39.104Z,98907.45
2018-03-03T02:11:08.617Z,98897.34
2018-03-03T02:13:41.542Z,98894.70
2018-03-03T02:16:11.108Z,98894.92
2018-03-03T02:18:40.730Z,98895.31
2018-03-03T02:21:12.708Z,98891.42
2018-03-03T02:23:42.682Z,98892.97
2018-03-03T02:26:14.784Z,98886.93
2018-03-03T02:28:46.782Z,98885.63
2018-03-03T02:31:16.211Z,98878.38
2018-03-03T02:33:45.530Z,98872.47
2018-03-03T02:36:15.249Z,98864.70
2018-03-03T02:38:44.648Z,98867.25
2018-03-03T02:41:14.000Z,98863.92
2018-03-03T02:43:43.671Z,98862.55
2018-03-03T02:46:13.060Z,98849.15
2018-03-03T02:48:42.364Z,98844.49
2018-03-03T02:51:12.147Z,98834.19
2018-03-03T02:53:41.485Z,98822.91
2018-03-03T02:56:10.764Z,98828.11
2018-03-03T02:58:40.614Z,98834.61
2018-03-03T03:01:09.945Z,98834.95
2018-03-03T03:03:39.406Z,98830.22
2018-03-03T03:06:09.059Z,98818.03
2018-03-03T03:08:38.436Z,98825.61
2018-03-03T03:11:07.748Z,98825.54
2018-03-03T03:13:37.687Z,98826.58
2018-03-03T03:16:06.966Z,98833.23
2018-03-03T03:18:36.352Z,98838.33
2018-03-03T03:21:08.045Z,98835.83
2018-03-03T03:23:37.597Z,98836.23
2018-03-03T03:26:06.902Z,98832.59
2018-03-03T03:28:36.539Z,98826.43
2018-03-03T03:31:06.049Z,98813.29
2018-03-03T03:33:35.541Z,98807.16
2018-03-03T03:36:06.587Z,98806.05
2018-03-03T03:38:35.982Z,98805.70
2018-03-03T03:41:05.428Z,98804.87
2018-03-03T03:43:35.251Z,98807.52
2018-03-03T03:46:05.078Z,98812.52
2018-03-03T03:48:34.494Z,98813.00
2018-03-03T03:51:03.773Z,98810.95
2018-03-03T03:53:33.100Z,98817.30
2018-03-03T03:56:03.396Z,98811.92
2018-03-03T03:58:32.732Z,98809.08
2018-03-03T04:01:02.075Z,98803.30
2018-03-03T04:03:32.851Z,98797.72
2018-03-03T04:06:02.868Z,98796.48
2018-03-03T04:08:32.229Z,98785.05
2018-03-03T04:11:01.982Z,98785.19
2018-03-03T04:13:31.304Z,98788.03
2018-03-03T04:16:00.589Z,98779.98
2018-03-03T04:18:30.287Z,98773.45
2018-03-03T04:21:02.048Z,98765.16
2018-03-03T04:23:34.925Z,98755.98
2018-03-03T04:26:09.598Z,98757.55
2018-03-03T04:28:39.202Z,98757.33
2018-03-03T04:31:08.765Z,98755.77
2018-03-03T04:33:38.776Z,98752.41
2018-03-03T04:36:08.313Z,98745.39
2018-03-03T04:38:37.815Z,98752.11
2018-03-03T04:41:07.650Z,98758.73
2018-03-03T04:43:37.099Z,98752.78
2018-03-03T04:46:06.494Z,98752.48
2018-03-03T04:48:35.877Z,98746.52
2018-03-03T04:51:05.750Z,98749.06
2018-03-03T04:53:35.105Z,98748.27
2018-03-03T04:56:05.914Z,98750.66
2018-03-03T04:58:35.338Z,98742.42
2018-03-03T05:01:05.061Z,98744.56
2018-03-03T05:03:34.444Z,98745.48
2018-03-03T05:06:04.885Z,98748.22
2018-03-03T05:08:34.366Z,98745.95
2018-03-03T05:11:04.345Z,98740.86
2018-03-03T05:13:33.719Z,98737.75
2018-03-03T05:16:03.842Z,98733.02
2018-03-03T05:18:34.357Z,98732.12
2018-03-03T05:21:04.083Z,98723.97
2018-03-03T05:23:34.176Z,98722.16
2018-03-03T05:26:08.441Z,98724.20
2018-03-03T05:28:38.510Z,98716.36
2018-03-03T05:31:08.055Z,98710.27
2018-03-03T05:33:37.641Z,98710.34
2018-03-03T05:36:07.466Z,98700.53
2018-03-03T05:38:37.542Z,98704.39
2018-03-03T05:41:07.893Z,98702.33
2018-03-03T05:43:37.259Z,98699.22
2018-03-03T05:46:06.865Z,98693.20
2018-03-03T05:48:36.232Z,98694.27
2018-03-03T05:51:05.631Z,98697.66
2018-03-03T05:53:35.335Z,98693.25
2018-03-03T05:56:05.936Z,98697.67
2018-03-03T05:58:35.359Z,98696.83
2018-03-03T06:01:05.068Z,98700.11
2018-03-03T06:03:34.452Z,98701.31
2018-03-03T06:06:05.010Z,98703.53
2018-03-03T06:08:34.528Z,98699.24
2018-03-03T06:11:05.921Z,98695.89
2018-03-03T06:13:35.279Z,98703.38
2018-03-03T06:16:05.351Z,98701.53
2018-03-03T06:18:35.247Z,98692.75
2018-03-03T06:21:04.924Z,98696.16
2018-03-03T06:23:34.270Z,98701.86
2018-03-03T06:26:05.260Z,98697.73
2018-03-03T06:28:35.134Z,98699.56
2018-03-03T06:31:04.786Z,98699.59
2018-03-03T06:33:35.031Z,98697.60
2018-03-03T06:36:06.509Z,98705.19
2018-03-03T06:38:35.897Z,98705.91
2018-03-03T06:41:05.303Z,98707.59
2018-03-03T06:43:34.666Z,98705.78
2018-03-03T06:46:05.066Z,98704.13
2018-03-03T06:48:34.341Z,98706.02
2018-03-03T06:51:04.286Z,98699.84
2018-03-03T06:53:33.884Z,98706.58
2018-03-03T06:56:04.524Z,98705.41
2018-03-03T06:58:33.828Z,98710.59
2018-03-03T07:01:03.522Z,98704.87
2018-03-03T07:03:33.241Z,98697.50
2018-03-03T07:06:03.314Z,98700.94
2018-03-03T07:08:32.799Z,98696.01
2018-03-03T07:11:03.361Z,98698.22
2018-03-03T07:13:32.767Z,98698.67
2018-03-03T07:16:03.846Z,98701.70
2018-03-03T07:18:33.522Z,98702.42
2018-03-03T07:21:03.110Z,98698.59
2018-03-03T07:23:32.365Z,98698.98
2018-03-03T07:26:03.036Z,98699.09
2018-03-03T07:28:32.282Z,98707.02
2018-03-03T07:31:01.793Z,98705.49
2018-03-03T07:33:31.427Z,98708.34
2018-03-03T07:36:00.751Z,98706.34
2018-03-03T07:38:30.013Z,98704.53
2018-03-03T07:40:59.638Z,98709.44
2018-03-03T07:43:28.870Z,98699.20
2018-03-03T07:45:58.096Z,98705.92
2018-03-03T07:48:27.884Z,98702.78
2018-03-03T07:50:57.247Z,98702.12
2018-03-03T07:53:26.507Z,98705.83
2018-03-03T07:55:56.363Z,98708.43
2018-03-03T08:01:06.011Z,98704.58
2018-03-03T08:03:35.442Z,98711.80
2018-03-03T08:06:05.878Z,98708.02
2018-03-03T08:08:35.971Z,98710.56
2018-03-03T08:11:05.535Z,98711.52
2018-03-03T08:13:34.763Z,98706.07
2018-03-03T08:16:05.175Z,98718.02
2018-03-03T08:18:34.388Z,98715.08
2018-03-03T08:21:03.979Z,98716.34
2018-03-03T08:25:59.060Z,98720.81
2018-03-03T08:28:28.452Z,98719.11
2018-03-03T08:30:59.319Z,98719.89
2018-03-03T08:33:28.702Z,98721.41
2018-03-03T08:35:58.037Z,98714.94
2018-03-03T08:38:27.829Z,98709.83
2018-03-03T08:40:57.832Z,98717.30
2018-03-03T08:43:33.170Z,98710.18
2018-03-03T08:46:03.306Z,98715.32
2018-03-03T08:48:32.650Z,98706.72
2018-03-03T08:51:02.106Z,98702.21
2018-03-03T08:53:32.064Z,98697.13
2018-03-03T08:56:02.191Z,98703.09
2018-03-03T08:58:31.576Z,98693.55
2018-03-03T09:01:01.376Z,98684.55
2018-03-03T09:03:30.762Z,98693.03
2018-03-03T09:06:00.062Z,98691.98
2018-03-03T09:08:29.740Z,98690.85
2018-03-03T09:10:59.004Z,98693.73
2018-03-03T09:13:28.295Z,98690.77
2018-03-03T09:15:57.962Z,98691.34
2018-03-03T09:18:27.259Z,98691.84
2018-03-03T09:20:58.066Z,98693.88
2018-03-03T09:23:27.965Z,98696.09
2018-03-03T09:25:57.396Z,98695.63
2018-03-03T09:28:27.427Z,98696.48
2018-03-03T09:30:57.791Z,98701.78
2018-03-03T09:33:28.371Z,98698.56
2018-03-03T09:35:58.511Z,98697.59
2018-03-03T09:38:28.799Z,98695.25
2018-03-03T09:40:59.872Z,98693.16
2018-03-03T09:43:29.284Z,98687.59
2018-03-03T09:45:59.188Z,98687.59
2018-03-03T09:48:28.570Z,98685.39
2018-03-03T09:50:58.774Z,98686.53
2018-03-03T09:53:28.766Z,98680.05
2018-03-03T09:55:58.554Z,98681.13
2018-03-03T09:58:27.845Z,98680.25
2018-03-03T10:00:59.198Z,98677.94
2018-03-03T10:03:28.681Z,98671.69
2018-03-03T10:06:01.157Z,98671.39
2018-03-03T10:08:31.639Z,98666.03
2018-03-03T10:11:02.895Z,98666.33
2018-03-03T10:13:32.311Z,98663.74
2018-03-03T10:16:05.524Z,98661.94
2018-03-03T10:18:35.473Z,98661.98
2018-03-03T10:21:05.231Z,98666.74
2018-03-03T10:23:35.559Z,98662.68
2018-03-03T10:26:05.886Z,98657.42
2018-03-03T10:28:35.157Z,98655.51
2018-03-03T10:31:07.934Z,98651.28
2018-03-03T10:33:37.250Z,98652.19
2018-03-03T10:36:06.580Z,98657.20
2018-03-03T10:38:36.213Z,98646.30
2018-03-03T10:41:06.101Z,98646.44
2018-03-03T10:43:36.114Z,98652.95
2018-03-03T10:46:07.163Z,98653.95
2018-03-03T10:48:36.985Z,98651.67
2018-03-03T10:51:06.561Z,98652.31
2018-03-03T10:53:36.306Z,98659.69
2018-03-03T10:56:06.076Z,98655.93
2018-03-03T10:58:35.498Z,98655.97
2018-03-03T11:01:06.377Z,98668.47
2018-03-03T11:03:35.650Z,98662.14
2018-03-03T11:06:05.907Z,98658.48
2018-03-03T11:08:35.935Z,98658.95
2018-03-03T11:11:05.798Z,98653.90
2018-03-03T11:13:35.159Z,98650.52
2018-03-03T11:16:05.811Z,98653.74
2018-03-03T11:18:35.355Z,98649.03
2018-03-03T11:21:05.561Z,98646.36
2018-03-03T11:23:35.743Z,98637.17
2018-03-03T11:26:07.202Z,98635.39
2018-03-03T11:28:37.538Z,98620.20
2018-03-03T11:31:07.283Z,98623.92
2018-03-03T11:33:37.378Z,98612.30
2018-03-03T11:36:06.821Z,98610.78
2018-03-03T11:38:36.815Z,98609.17
2018-03-03T11:41:06.150Z,98607.64
2018-03-03T11:43:35.499Z,98606.51
2018-03-03T11:46:08.075Z,98602.12
2018-03-03T11:48:37.672Z,98611.33
2018-03-03T11:51:07.003Z,98604.48
2018-03-03T11:53:37.171Z,98613.98
2018-03-03T11:56:06.467Z,98607.55
2018-03-03T11:58:35.781Z,98609.58
2018-03-03T12:03:41.708Z,98607.63
2018-03-03T12:06:11.464Z,98595.96
2018-03-03T12:08:41.446Z,98598.22
2018-03-03T12:11:11.493Z,98597.73
2018-03-03T12:13:41.147Z,98596.62
2018-03-03T12:16:10.550Z,98599.33
2018-03-03T12:18:40.059Z,98602.66
2018-03-03T12:21:10.377Z,98600.50
2018-03-03T12:23:39.737Z,98611.49
2018-03-03T12:26:09.075Z,98603.42
2018-03-03T12:28:38.852Z,98608.38
2018-03-03T12:31:08.196Z,98601.12
2018-03-03T12:33:37.434Z,98604.77
2018-03-03T12:36:07.120Z,98607.18
2018-03-03T12:38:36.458Z,98605.86
2018-03-03T12:41:05.766Z,98601.09
2018-03-03T12:43:35.498Z,98608.08
2018-03-03T12:46:05.612Z,98604.34
2018-03-03T12:48:34.921Z,98606.98
2018-03-03T12:51:05.215Z,98605.59
2018-03-03T12:53:34.497Z,98604.89
2018-03-03T12:56:05.078Z,98599.86
2018-03-03T12:58:34.996Z,98614.75
2018-03-03T13:01:05.341Z,98615.31
2018-03-03T13:03:34.778Z,98607.88
2018-03-03T13:06:05.230Z,98609.59
2018-03-03T13:08:34.509Z,98611.28
2018-03-03T13:11:04.096Z,98611.22
2018-03-03T13:13:33.389Z,98616.63
2018-03-03T13:18:41.766Z,98619.20
2018-03-03T13:21:11.237Z,98623.50
2018-03-03T13:23:40.633Z,98622.05
2018-03-03T13:26:11.236Z,98623.02
2018-03-03T13:28:40.802Z,98624.09
2018-03-03T13:31:10.104Z,98620.42
2018-03-03T13:33:39.440Z,98619.18
2018-03-03T13:36:08.859Z,98629.48
2018-03-03T13:38:38.583Z,98627.53
2018-03-03T13:41:07.880Z,98623.89
2018-03-03T13:43:37.182Z,98626.21
2018-03-03T13:46:07.039Z,98633.34
2018-03-03T13:48:36.327Z,98626.53
2018-03-03T13:51:05.739Z,98630.95
2018-03-03T13:53:35.493Z,98623.00
2018-03-03T13:56:05.684Z,98622.36
2018-03-03T13:58:35.017Z,98619.99
2018-03-03T14:01:05.111Z,98626.58
2018-03-03T14:03:34.448Z,98624.93
2018-03-03T14:06:04.767Z,98624.09
2018-03-03T14:08:34.441Z,98620.79
2018-03-03T14:11:03.789Z,98622.27
2018-03-03T14:13:33.141Z,98632.79
2018-03-03T14:16:03.763Z,98639.29
2018-03-03T14:18:33.267Z,98634.52
2018-03-03T14:21:02.969Z,98637.93
2018-03-03T14:23:32.813Z,98640.81
2018-03-03T14:26:03.876Z,98639.93
2018-03-03T14:28:33.206Z,98635.75
2018-03-03T14:31:03.374Z,98636.41
2018-03-03T14:33:32.654Z,98639.47
2018-03-03T14:36:02.712Z,98643.21
2018-03-03T14:38:32.341Z,98643.44
2018-03-03T14:41:01.974Z,98649.51
2018-03-03T14:43:31.291Z,98649.80
2018-03-03T14:46:00.895Z,98646.76
2018-03-03T14:48:30.283Z,98647.41
2018-03-03T14:50:59.997Z,98646.42
2018-03-03T14:53:29.632Z,98644.17
2018-03-03T14:55:58.887Z,98645.32
2018-03-03T14:58:28.173Z,98647.07
2018-03-03T15:00:57.951Z,98654.34
2018-03-03T15:03:27.287Z,98645.45
2018-03-03T15:05:56.543Z,98644.96
2018-03-03T15:08:26.312Z,98651.56
2018-03-03T15:10:55.591Z,98648.33
2018-03-03T15:13:25.124Z,98654.23
2018-03-03T15:15:55.693Z,98665.48
2018-03-03T15:18:25.485Z,98671.28
2018-03-03T15:20:54.792Z,98682.80
2018-03-03T15:23:24.048Z,98690.81
2018-03-03T15:25:53.591Z,98695.47
2018-03-03T15:28:23.314Z,98691.94
2018-03-03T15:30:52.784Z,98703.70
2018-03-03T15:33:22.027Z,98694.73
2018-03-03T17:04:21.292Z,98806.59
2018-03-03T17:06:50.580Z,98803.55
2018-03-03T17:09:20.400Z,98808.30
2018-03-03T17:11:49.634Z,98812.66
2018-03-03T17:14:18.877Z,98821.35
2018-03-03T17:16:48.802Z,98820.51
2018-03-03T17:19:18.128Z,98828.88
2018-03-03T17:21:47.423Z,98833.81
2018-03-03T17:24:17.136Z,98836.05
2018-03-03T17:26:46.361Z,98844.02
2018-03-03T17:29:15.877Z,98840.61
2018-03-03T17:31:45.652Z,98848.67
2018-03-03T17:34:15.106Z,98847.72
2018-03-03T17:36:44.658Z,98856.30
2018-03-03T17:39:14.313Z,98860.81
2018-03-03T17:41:43.575Z,98861.27
2018-03-03T17:44:12.816Z,98868.40
2018-03-03T17:46:42.460Z,98870.41
2018-03-03T17:49:11.789Z,98870.28
2018-03-03T17:51:41.103Z,98870.58
2018-03-03T17:54:10.871Z,98873.57
2018-03-03T17:56:40.387Z,98877.25
2018-03-03T17:59:10.274Z,98880.44
2018-03-03T18:01:39.966Z,98884.80
2018-03-03T18:04:09.318Z,98881.09
2018-03-03T18:06:38.613Z,98880.98
2018-03-03T18:09:08.638Z,98888.44
2018-03-03T18:11:37.945Z,98888.56
2018-03-03T18:14:07.786Z,98886.13
2018-03-03T18:16:37.410Z,98884.83
2018-03-03T18:19:06.827Z,98888.58
2018-03-03T18:21:36.252Z,98887.01
2018-03-03T18:24:11.460Z,98888.02
2018-03-03T18:26:41.096Z,98893.89
2018-03-03T18:29:10.605Z,98892.36
2018-03-03T18:31:40.403Z,98891.38
2018-03-03T18:34:09.741Z,98899.09
2018-03-03T18:36:39.029Z,98894.31
2018-03-03T18:39:08.583Z,98897.27
2018-03-03T18:41:37.919Z,98900.98
2018-03-03T18:44:07.732Z,98906.58
2018-03-03T18:46:37.475Z,98911.39
2018-03-03T18:49:06.752Z,98912.08
2018-03-03T18:51:36.115Z,98911.03
2018-03-03T18:54:06.381Z,98911.66
2018-03-03T18:56:35.900Z,98911.99
2018-03-03T18:59:05.932Z,98906.88
2018-03-03T19:01:40.467Z,98912.74
2018-03-03T19:04:09.772Z,98907.41
2018-03-03T19:06:39.257Z,98908.87
2018-03-03T19:09:08.844Z,98919.52
2018-03-03T19:11:38.172Z,98916.72
2018-03-03T19:14:07.521Z,98916.69
2018-03-03T19:16:37.165Z,98921.21
2018-03-03T19:19:06.462Z,98913.72
2018-03-03T19:21:35.720Z,98923.23
2018-03-03T19:24:06.510Z,98926.77
2018-03-03T19:26:35.804Z,98931.63
2018-03-03T19:29:05.429Z,98934.00
2018-03-03T19:31:35.227Z,98942.50
2018-03-03T19:34:05.408Z,98944.30
2018-03-03T19:36:34.733Z,98943.97
2018-03-03T19:39:05.522Z,98945.53
2018-03-03T19:41:35.090Z,98951.10
2018-03-03T19:44:05.464Z,98947.16
2018-03-03T19:46:35.745Z,98946.54
2018-03-03T19:49:05.489Z,98948.92
2018-03-03T19:51:35.300Z,98947.03
2018-03-03T19:54:08.343Z,98957.02
2018-03-03T19:56:38.278Z,98952.16
2018-03-03T19:59:07.818Z,98955.72
2018-03-03T20:01:37.764Z,98962.72
2018-03-03T20:04:07.585Z,98963.40
2018-03-03T20:06:37.292Z,98960.56
2018-03-03T20:09:07.320Z,98965.48
2018-03-03T20:11:37.027Z,98967.94
2018-03-03T20:14:07.229Z,98972.34
2018-03-03T20:16:38.118Z,98976.20
2018-03-03T20:19:08.163Z,98978.65
2018-03-03T20:21:37.854Z,98978.86
2018-03-03T20:24:08.491Z,98983.95
2018-03-03T20:26:38.218Z,98978.88
2018-03-03T20:29:08.919Z,98980.54
2018-03-03T20:31:39.931Z,98990.02
2018-03-03T20:34:09.873Z,98992.52
2018-03-03T20:36:39.530Z,98992.36
2018-03-03T20:39:09.762Z,98997.05
2018-03-03T20:41:39.373Z,98998.26
2018-03-03T20:44:09.722Z,98998.20
2018-03-03T20:46:39.645Z,98995.25
2018-03-03T20:49:09.277Z,98997.73
2018-03-03T20:51:38.843Z,99002.14
2018-03-03T20:54:09.104Z,99000.34
2018-03-03T20:56:39.211Z,99002.09
2018-03-03T20:59:09.016Z,99000.34
2018-03-03T21:01:39.317Z,98994.26
2018-03-03T21:04:08.982Z,98999.75
2018-03-03T21:06:38.603Z,98995.33
2018-03-03T21:09:08.866Z,98994.26
2018-03-03T21:11:38.820Z,98996.14
2018-03-03T21:14:08.460Z,98992.77
2018-03-03T21:16:38.760Z,98987.54
2018-03-03T21:19:08.591Z,98994.06
2018-03-03T21:21:38.239Z,98995.37
2018-03-03T21:24:09.448Z,98994.27
2018-03-03T21:26:39.028Z,99000.88
2018-03-03T21:29:09.017Z,98993.69
2018-03-03T21:31:39.054Z,98994.67
2018-03-03T21:34:08.681Z,98989.05
2018-03-03T21:36:38.398Z,98993.64
2018-03-03T21:39:08.447Z,98993.70
2018-03-03T21:41:38.013Z,98993.48
2018-03-03T21:44:07.974Z,98995.38
2018-03-03T21:46:38.098Z,98997.50
2018-03-03T21:49:07.881Z,99001.59
2018-03-03T21:51:37.526Z,99003.44
2018-03-03T21:54:07.811Z,99008.59
2018-03-03T21:56:37.367Z,99008.78
2018-03-03T21:59:06.659Z,99008.53
2018-03-03T22:01:36.229Z,99007.80
2018-03-03T22:04:06.257Z,99007.63
2018-03-03T22:06:35.582Z,99012.80
2018-03-03T22:09:06.026Z,99006.17
2018-03-03T22:11:35.292Z,99006.08
2018-03-03T22:14:05.246Z,99010.85
2018-03-03T22:16:35.074Z,99008.70
2018-03-03T22:19:05.715Z,99024.36
2018-03-03T22:21:35.015Z,99024.52
2018-03-03T22:24:06.969Z,99030.02
2018-03-03T22:26:36.251Z,99029.77
2018-03-03T22:29:05.688Z,99022.90
2018-03-03T22:31:35.444Z,99024.20
2018-03-03T22:34:05.449Z,99015.94
2018-03-03T22:36:35.121Z,99021.45
2018-03-03T22:39:06.096Z,99022.69
2018-03-03T22:41:35.384Z,99026.59
2018-03-03T22:44:06.549Z,99030.33
2018-03-03T22:46:37.650Z,99034.77
2018-03-03T22:49:06.969Z,99037.14
2018-03-03T22:51:36.290Z,99034.80
2018-03-03T22:54:06.868Z,99034.45
2018-03-03T22:56:36.143Z,99034.14
2018-03-03T22:59:05.404Z,99034.55
2018-03-03T23:01:35.367Z,99035.28
2018-03-03T23:04:05.203Z,99036.52
2018-03-03T23:06:34.502Z,99042.03
2018-03-03T23:09:04.502Z,99041.74
2018-03-03T23:11:33.833Z,99048.11
2018-03-03T23:14:04.300Z,99053.22
2018-03-03T23:16:34.009Z,99054.91
2018-03-03T23:19:03.800Z,99061.10
2018-03-03T23:21:33.031Z,99062.38
2018-03-03T23:24:04.646Z,99059.18
2018-03-03T23:26:33.908Z,99069.77
2018-03-03T23:29:03.857Z,99070.05
2018-03-03T23:31:33.462Z,99071.49
2018-03-03T23:34:03.393Z,99075.72
2018-03-03T23:36:32.610Z,99080.66
2018-03-03T23:39:02.773Z,99078.41
2018-03-03T23:41:32.042Z,99081.48
2018-03-03T23:44:01.298Z,99081.52
2018-03-03T23:46:30.902Z,99084.30
2018-03-03T23:49:00.173Z,99086.52
2018-03-03T23:51:29.451Z,99092.38
2018-03-03T23:53:59.213Z,99089.13
2018-03-03T23:56:28.417Z,99090.79
2018-03-03T23:58:58.611Z,99093.54
